sensor_id;sensor_type;location;lat;lon;timestamp;P1;durP1;ratioP1;P2;durP2;ratioP2
38358;SDS011;42072;48.044;14.416;2023-06-26T00:00:55;13.15;;;10.80;;
38358;SDS011;42072;48.044;14.416;2023-06-26T00:03:22;13.43;;;10.30;;
38358;SDS011;42072;48.044;14.416;2023-06-26T00:05:49;13.13;;;10.40;;
38358;SDS011;42072;48.044;14.416;2023-06-26T00:08:17;13.68;;;11.10;;
38358;SDS011;42072;48.044;14.416;2023-06-26T00:10:44;13.85;;;10.65;;
38358;SDS011;42072;48.044;14.416;2023-06-26T00:13:12;14.73;;;10.20;;
38358;SDS011;42072;48.044;14.416;2023-06-26T00:15:39;14.63;;;10.45;;
38358;SDS011;42072;48.044;14.416;2023-06-26T00:18:06;16.23;;;10.73;;
38358;SDS011;42072;48.044;14.416;2023-06-26T00:20:34;15.13;;;10.48;;
38358;SDS011;42072;48.044;14.416;2023-06-26T00:23:01;14.90;;;10.50;;
38358;SDS011;42072;48.044;14.416;2023-06-26T00:25:30;16.40;;;10.40;;
38358;SDS011;42072;48.044;14.416;2023-06-26T00:27:57;13.52;;;10.50;;
38358;SDS011;42072;48.044;14.416;2023-06-26T00:30:24;13.52;;;9.38;;
38358;SDS011;42072;48.044;14.416;2023-06-26T00:32:51;12.88;;;9.18;;
38358;SDS011;42072;48.044;14.416;2023-06-26T00:35:19;12.40;;;10.07;;
38358;SDS011;42072;48.044;14.416;2023-06-26T00:37:46;13.23;;;10.18;;
38358;SDS011;42072;48.044;14.416;2023-06-26T00:40:13;14.35;;;10.25;;
38358;SDS011;42072;48.044;14.416;2023-06-26T00:42:42;12.77;;;10.05;;
38358;SDS011;42072;48.044;14.416;2023-06-26T00:45:09;12.48;;;10.32;;
38358;SDS011;42072;48.044;14.416;2023-06-26T00:47:36;15.45;;;10.80;;
38358;SDS011;42072;48.044;14.416;2023-06-26T00:50:04;14.23;;;10.13;;
38358;SDS011;42072;48.044;14.416;2023-06-26T00:52:32;14.93;;;10.45;;
38358;SDS011;42072;48.044;14.416;2023-06-26T00:54:59;13.43;;;10.18;;
38358;SDS011;42072;48.044;14.416;2023-06-26T00:57:27;12.32;;;9.50;;
38358;SDS011;42072;48.044;14.416;2023-06-26T00:59:54;13.35;;;10.23;;
38358;SDS011;42072;48.044;14.416;2023-06-26T01:02:21;11.98;;;9.73;;
38358;SDS011;42072;48.044;14.416;2023-06-26T01:04:49;11.57;;;9.85;;
38358;SDS011;42072;48.044;14.416;2023-06-26T01:07:18;12.98;;;10.27;;
38358;SDS011;42072;48.044;14.416;2023-06-26T01:09:47;13.45;;;10.63;;
38358;SDS011;42072;48.044;14.416;2023-06-26T01:12:15;12.68;;;10.02;;
38358;SDS011;42072;48.044;14.416;2023-06-26T01:14:42;19.05;;;10.35;;
38358;SDS011;42072;48.044;14.416;2023-06-26T01:17:09;16.88;;;11.10;;
38358;SDS011;42072;48.044;14.416;2023-06-26T01:19:42;14.93;;;10.63;;
38358;SDS011;42072;48.044;14.416;2023-06-26T01:22:19;13.00;;;10.02;;
38358;SDS011;42072;48.044;14.416;2023-06-26T01:25:01;12.93;;;10.25;;
38358;SDS011;42072;48.044;14.416;2023-06-26T01:27:38;15.23;;;10.75;;
38358;SDS011;42072;48.044;14.416;2023-06-26T01:30:06;13.00;;;9.65;;
38358;SDS011;42072;48.044;14.416;2023-06-26T01:32:34;14.13;;;10.18;;
38358;SDS011;42072;48.044;14.416;2023-06-26T01:35:02;14.88;;;10.10;;
38358;SDS011;42072;48.044;14.416;2023-06-26T01:37:32;15.23;;;10.00;;
38358;SDS011;42072;48.044;14.416;2023-06-26T01:39:59;14.45;;;10.45;;
38358;SDS011;42072;48.044;14.416;2023-06-26T01:42:27;13.93;;;10.75;;
38358;SDS011;42072;48.044;14.416;2023-06-26T01:44:54;14.85;;;9.95;;
38358;SDS011;42072;48.044;14.416;2023-06-26T01:47:24;12.93;;;10.02;;
38358;SDS011;42072;48.044;14.416;2023-06-26T01:55:27;14.18;;;10.13;;
38358;SDS011;42072;48.044;14.416;2023-06-26T01:58:03;11.63;;;9.40;;
38358;SDS011;42072;48.044;14.416;2023-06-26T02:00:31;12.60;;;9.95;;
38358;SDS011;42072;48.044;14.416;2023-06-26T02:02:58;13.95;;;10.10;;
38358;SDS011;42072;48.044;14.416;2023-06-26T02:05:26;14.65;;;9.95;;
38358;SDS011;42072;48.044;14.416;2023-06-26T02:07:53;13.32;;;9.55;;
38358;SDS011;42072;48.044;14.416;2023-06-26T02:10:20;14.88;;;9.85;;
38358;SDS011;42072;48.044;14.416;2023-06-26T02:12:47;14.05;;;10.23;;
38358;SDS011;42072;48.044;14.416;2023-06-26T02:15:14;14.48;;;10.15;;
38358;SDS011;42072;48.044;14.416;2023-06-26T02:17:41;13.65;;;10.10;;
38358;SDS011;42072;48.044;14.416;2023-06-26T02:20:08;15.20;;;10.25;;
38358;SDS011;42072;48.044;14.416;2023-06-26T02:22:36;12.52;;;9.90;;
38358;SDS011;42072;48.044;14.416;2023-06-26T02:25:04;15.32;;;10.20;;
38358;SDS011;42072;48.044;14.416;2023-06-26T02:27:32;13.48;;;9.95;;
38358;SDS011;42072;48.044;14.416;2023-06-26T02:29:59;13.18;;;10.20;;
38358;SDS011;42072;48.044;14.416;2023-06-26T02:32:26;14.75;;;10.07;;
38358;SDS011;42072;48.044;14.416;2023-06-26T02:34:53;15.60;;;10.45;;
38358;SDS011;42072;48.044;14.416;2023-06-26T02:37:20;11.68;;;9.70;;
38358;SDS011;42072;48.044;14.416;2023-06-26T02:39:47;13.88;;;9.50;;
38358;SDS011;42072;48.044;14.416;2023-06-26T02:42:14;17.73;;;9.52;;
38358;SDS011;42072;48.044;14.416;2023-06-26T02:44:41;14.05;;;10.07;;
38358;SDS011;42072;48.044;14.416;2023-06-26T02:47:09;14.05;;;9.68;;
38358;SDS011;42072;48.044;14.416;2023-06-26T02:49:36;13.77;;;9.57;;
38358;SDS011;42072;48.044;14.416;2023-06-26T02:52:03;13.38;;;9.52;;
38358;SDS011;42072;48.044;14.416;2023-06-26T02:54:30;13.13;;;10.15;;
38358;SDS011;42072;48.044;14.416;2023-06-26T02:56:59;14.68;;;10.05;;
38358;SDS011;42072;48.044;14.416;2023-06-26T02:59:26;13.48;;;10.27;;
38358;SDS011;42072;48.044;14.416;2023-06-26T03:01:53;14.18;;;9.93;;
38358;SDS011;42072;48.044;14.416;2023-06-26T03:04:20;14.18;;;9.88;;
38358;SDS011;42072;48.044;14.416;2023-06-26T03:06:48;12.80;;;9.45;;
38358;SDS011;42072;48.044;14.416;2023-06-26T03:09:15;13.55;;;10.38;;
38358;SDS011;42072;48.044;14.416;2023-06-26T03:11:43;15.30;;;9.45;;
38358;SDS011;42072;48.044;14.416;2023-06-26T03:14:10;16.17;;;10.27;;
38358;SDS011;42072;48.044;14.416;2023-06-26T03:16:37;16.67;;;10.77;;
38358;SDS011;42072;48.044;14.416;2023-06-26T03:19:05;12.88;;;10.07;;
38358;SDS011;42072;48.044;14.416;2023-06-26T03:21:32;13.93;;;10.77;;
38358;SDS011;42072;48.044;14.416;2023-06-26T03:23:59;12.38;;;9.27;;
38358;SDS011;42072;48.044;14.416;2023-06-26T03:26:26;16.92;;;10.88;;
38358;SDS011;42072;48.044;14.416;2023-06-26T03:28:54;12.73;;;10.13;;
38358;SDS011;42072;48.044;14.416;2023-06-26T03:31:22;14.73;;;10.05;;
38358;SDS011;42072;48.044;14.416;2023-06-26T03:33:49;14.75;;;9.45;;
38358;SDS011;42072;48.044;14.416;2023-06-26T03:36:16;18.08;;;10.32;;
38358;SDS011;42072;48.044;14.416;2023-06-26T03:38:43;13.93;;;10.02;;
38358;SDS011;42072;48.044;14.416;2023-06-26T03:41:10;14.52;;;9.85;;
38358;SDS011;42072;48.044;14.416;2023-06-26T03:43:37;17.70;;;10.55;;
38358;SDS011;42072;48.044;14.416;2023-06-26T03:46:04;12.38;;;9.80;;
38358;SDS011;42072;48.044;14.416;2023-06-26T03:48:32;12.82;;;9.25;;
38358;SDS011;42072;48.044;14.416;2023-06-26T03:50:59;14.95;;;10.32;;
38358;SDS011;42072;48.044;14.416;2023-06-26T03:53:28;13.50;;;9.65;;
38358;SDS011;42072;48.044;14.416;2023-06-26T03:55:55;12.90;;;9.60;;
38358;SDS011;42072;48.044;14.416;2023-06-26T03:58:22;12.73;;;10.13;;
38358;SDS011;42072;48.044;14.416;2023-06-26T04:00:49;13.00;;;9.48;;
38358;SDS011;42072;48.044;14.416;2023-06-26T04:03:17;15.57;;;9.85;;
38358;SDS011;42072;48.044;14.416;2023-06-26T04:05:44;13.63;;;9.50;;
38358;SDS011;42072;48.044;14.416;2023-06-26T04:08:11;13.82;;;9.63;;
38358;SDS011;42072;48.044;14.416;2023-06-26T04:10:38;15.48;;;9.50;;
38358;SDS011;42072;48.044;14.416;2023-06-26T04:13:05;15.30;;;9.45;;
38358;SDS011;42072;48.044;14.416;2023-06-26T04:15:33;12.27;;;9.57;;
38358;SDS011;42072;48.044;14.416;2023-06-26T04:18:00;14.65;;;9.73;;
38358;SDS011;42072;48.044;14.416;2023-06-26T04:20:27;14.88;;;8.73;;
38358;SDS011;42072;48.044;14.416;2023-06-26T04:22:54;12.95;;;8.98;;
38358;SDS011;42072;48.044;14.416;2023-06-26T04:25:21;10.32;;;8.32;;
38358;SDS011;42072;48.044;14.416;2023-06-26T04:27:48;12.88;;;8.80;;
38358;SDS011;42072;48.044;14.416;2023-06-26T04:30:15;13.70;;;8.85;;
38358;SDS011;42072;48.044;14.416;2023-06-26T04:32:43;11.48;;;8.68;;
38358;SDS011;42072;48.044;14.416;2023-06-26T04:35:10;11.48;;;9.35;;
38358;SDS011;42072;48.044;14.416;2023-06-26T04:37:37;10.80;;;8.40;;
38358;SDS011;42072;48.044;14.416;2023-06-26T04:40:06;10.60;;;7.95;;
38358;SDS011;42072;48.044;14.416;2023-06-26T04:42:36;11.25;;;7.88;;
38358;SDS011;42072;48.044;14.416;2023-06-26T04:45:03;11.02;;;7.70;;
38358;SDS011;42072;48.044;14.416;2023-06-26T04:47:30;10.70;;;7.43;;
38358;SDS011;42072;48.044;14.416;2023-06-26T04:49:58;9.43;;;7.40;;
38358;SDS011;42072;48.044;14.416;2023-06-26T04:52:25;11.05;;;7.50;;
38358;SDS011;42072;48.044;14.416;2023-06-26T04:54:52;12.23;;;7.63;;
38358;SDS011;42072;48.044;14.416;2023-06-26T04:57:19;8.30;;;6.72;;
38358;SDS011;42072;48.044;14.416;2023-06-26T04:59:46;8.77;;;7.57;;
38358;SDS011;42072;48.044;14.416;2023-06-26T05:02:13;8.82;;;7.28;;
38358;SDS011;42072;48.044;14.416;2023-06-26T05:04:41;9.77;;;8.23;;
38358;SDS011;42072;48.044;14.416;2023-06-26T05:07:09;9.25;;;7.35;;
38358;SDS011;42072;48.044;14.416;2023-06-26T05:09:36;8.60;;;7.70;;
38358;SDS011;42072;48.044;14.416;2023-06-26T05:12:03;11.75;;;7.55;;
38358;SDS011;42072;48.044;14.416;2023-06-26T05:14:31;9.30;;;7.60;;
38358;SDS011;42072;48.044;14.416;2023-06-26T05:16:59;9.00;;;7.60;;
38358;SDS011;42072;48.044;14.416;2023-06-26T05:19:26;11.43;;;7.32;;
38358;SDS011;42072;48.044;14.416;2023-06-26T05:21:54;11.50;;;8.88;;
38358;SDS011;42072;48.044;14.416;2023-06-26T05:24:22;8.18;;;7.20;;
38358;SDS011;42072;48.044;14.416;2023-06-26T05:26:51;8.95;;;7.63;;
38358;SDS011;42072;48.044;14.416;2023-06-26T05:29:18;8.30;;;7.35;;
38358;SDS011;42072;48.044;14.416;2023-06-26T05:31:45;8.13;;;7.32;;
38358;SDS011;42072;48.044;14.416;2023-06-26T05:34:15;9.18;;;7.13;;
38358;SDS011;42072;48.044;14.416;2023-06-26T05:36:46;10.73;;;7.93;;
38358;SDS011;42072;48.044;14.416;2023-06-26T05:39:17;8.40;;;7.55;;
38358;SDS011;42072;48.044;14.416;2023-06-26T05:41:45;12.93;;;8.10;;
38358;SDS011;42072;48.044;14.416;2023-06-26T05:44:12;8.18;;;7.38;;
38358;SDS011;42072;48.044;14.416;2023-06-26T05:46:39;9.95;;;7.65;;
38358;SDS011;42072;48.044;14.416;2023-06-26T05:49:06;9.43;;;7.47;;
38358;SDS011;42072;48.044;14.416;2023-06-26T05:51:33;10.32;;;7.90;;
38358;SDS011;42072;48.044;14.416;2023-06-26T05:54:01;10.13;;;8.30;;
38358;SDS011;42072;48.044;14.416;2023-06-26T05:56:28;12.25;;;7.53;;
38358;SDS011;42072;48.044;14.416;2023-06-26T05:58:56;10.02;;;7.45;;
38358;SDS011;42072;48.044;14.416;2023-06-26T06:01:25;11.07;;;8.80;;
38358;SDS011;42072;48.044;14.416;2023-06-26T06:03:52;9.43;;;8.38;;
38358;SDS011;42072;48.044;14.416;2023-06-26T06:06:19;9.52;;;7.47;;
38358;SDS011;42072;48.044;14.416;2023-06-26T06:08:46;10.05;;;7.88;;
38358;SDS011;42072;48.044;14.416;2023-06-26T06:11:15;8.00;;;7.25;;
38358;SDS011;42072;48.044;14.416;2023-06-26T06:13:42;12.95;;;8.02;;
38358;SDS011;42072;48.044;14.416;2023-06-26T06:16:09;10.27;;;8.23;;
38358;SDS011;42072;48.044;14.416;2023-06-26T06:18:36;10.50;;;8.15;;
38358;SDS011;42072;48.044;14.416;2023-06-26T06:21:03;9.70;;;7.60;;
38358;SDS011;42072;48.044;14.416;2023-06-26T06:23:31;11.13;;;7.68;;
38358;SDS011;42072;48.044;14.416;2023-06-26T06:25:58;8.75;;;7.85;;
38358;SDS011;42072;48.044;14.416;2023-06-26T06:28:25;8.77;;;7.70;;
38358;SDS011;42072;48.044;14.416;2023-06-26T06:30:52;9.13;;;7.50;;
38358;SDS011;42072;48.044;14.416;2023-06-26T06:33:19;8.70;;;7.75;;
38358;SDS011;42072;48.044;14.416;2023-06-26T06:35:47;8.77;;;7.55;;
38358;SDS011;42072;48.044;14.416;2023-06-26T06:38:14;10.95;;;8.23;;
38358;SDS011;42072;48.044;14.416;2023-06-26T06:40:41;9.77;;;8.23;;
38358;SDS011;42072;48.044;14.416;2023-06-26T06:43:08;15.05;;;8.65;;
38358;SDS011;42072;48.044;14.416;2023-06-26T06:45:36;9.65;;;8.18;;
38358;SDS011;42072;48.044;14.416;2023-06-26T06:48:04;9.05;;;8.10;;
38358;SDS011;42072;48.044;14.416;2023-06-26T06:50:32;10.18;;;7.93;;
38358;SDS011;42072;48.044;14.416;2023-06-26T06:52:59;10.35;;;7.95;;
38358;SDS011;42072;48.044;14.416;2023-06-26T06:55:26;10.05;;;7.57;;
38358;SDS011;42072;48.044;14.416;2023-06-26T06:57:53;10.23;;;8.40;;
38358;SDS011;42072;48.044;14.416;2023-06-26T07:00:20;9.30;;;8.15;;
38358;SDS011;42072;48.044;14.416;2023-06-26T07:02:47;11.30;;;8.40;;
38358;SDS011;42072;48.044;14.416;2023-06-26T07:05:16;8.98;;;7.90;;
38358;SDS011;42072;48.044;14.416;2023-06-26T07:07:43;11.05;;;8.30;;
38358;SDS011;42072;48.044;14.416;2023-06-26T07:10:11;10.13;;;8.20;;
38358;SDS011;42072;48.044;14.416;2023-06-26T07:12:39;11.90;;;8.45;;
38358;SDS011;42072;48.044;14.416;2023-06-26T07:15:07;10.35;;;8.73;;
38358;SDS011;42072;48.044;14.416;2023-06-26T07:17:34;9.90;;;8.52;;
38358;SDS011;42072;48.044;14.416;2023-06-26T07:20:02;9.82;;;8.40;;
38358;SDS011;42072;48.044;14.416;2023-06-26T07:22:35;8.57;;;7.65;;
38358;SDS011;42072;48.044;14.416;2023-06-26T07:25:02;10.05;;;8.13;;
38358;SDS011;42072;48.044;14.416;2023-06-26T07:27:31;9.05;;;7.90;;
38358;SDS011;42072;48.044;14.416;2023-06-26T07:29:59;10.43;;;7.82;;
38358;SDS011;42072;48.044;14.416;2023-06-26T07:32:27;10.27;;;8.50;;
38358;SDS011;42072;48.044;14.416;2023-06-26T07:34:54;12.00;;;8.20;;
38358;SDS011;42072;48.044;14.416;2023-06-26T07:37:21;9.07;;;8.13;;
38358;SDS011;42072;48.044;14.416;2023-06-26T07:39:49;11.48;;;8.07;;
38358;SDS011;42072;48.044;14.416;2023-06-26T07:42:16;10.25;;;8.10;;
38358;SDS011;42072;48.044;14.416;2023-06-26T07:44:43;14.52;;;8.18;;
38358;SDS011;42072;48.044;14.416;2023-06-26T07:47:11;10.32;;;8.43;;
38358;SDS011;42072;48.044;14.416;2023-06-26T07:49:39;10.68;;;8.38;;
38358;SDS011;42072;48.044;14.416;2023-06-26T07:52:06;10.48;;;8.57;;
38358;SDS011;42072;48.044;14.416;2023-06-26T07:54:37;11.05;;;7.90;;
38358;SDS011;42072;48.044;14.416;2023-06-26T07:57:04;11.45;;;8.30;;
38358;SDS011;42072;48.044;14.416;2023-06-26T07:59:39;10.80;;;8.10;;
38358;SDS011;42072;48.044;14.416;2023-06-26T08:02:06;10.90;;;7.90;;
38358;SDS011;42072;48.044;14.416;2023-06-26T08:04:33;12.50;;;8.48;;
38358;SDS011;42072;48.044;14.416;2023-06-26T08:07:01;11.30;;;8.32;;
38358;SDS011;42072;48.044;14.416;2023-06-26T08:09:30;11.82;;;8.60;;
38358;SDS011;42072;48.044;14.416;2023-06-26T08:11:58;9.90;;;8.13;;
38358;SDS011;42072;48.044;14.416;2023-06-26T08:14:25;8.65;;;7.55;;
38358;SDS011;42072;48.044;14.416;2023-06-26T08:16:53;9.50;;;8.05;;
38358;SDS011;42072;48.044;14.416;2023-06-26T08:19:21;9.70;;;8.35;;
38358;SDS011;42072;48.044;14.416;2023-06-26T08:21:48;9.65;;;8.25;;
38358;SDS011;42072;48.044;14.416;2023-06-26T08:24:15;11.45;;;8.20;;
38358;SDS011;42072;48.044;14.416;2023-06-26T08:26:45;12.40;;;7.97;;
38358;SDS011;42072;48.044;14.416;2023-06-26T08:29:13;11.05;;;8.10;;
38358;SDS011;42072;48.044;14.416;2023-06-26T08:31:41;10.05;;;8.25;;
38358;SDS011;42072;48.044;14.416;2023-06-26T08:34:10;10.10;;;8.75;;
38358;SDS011;42072;48.044;14.416;2023-06-26T08:36:37;9.60;;;8.50;;
38358;SDS011;42072;48.044;14.416;2023-06-26T08:39:04;11.27;;;8.57;;
38358;SDS011;42072;48.044;14.416;2023-06-26T08:41:32;9.45;;;7.95;;
38358;SDS011;42072;48.044;14.416;2023-06-26T08:43:59;10.20;;;8.40;;
38358;SDS011;42072;48.044;14.416;2023-06-26T08:46:26;8.63;;;7.68;;
38358;SDS011;42072;48.044;14.416;2023-06-26T08:48:55;10.38;;;8.05;;
38358;SDS011;42072;48.044;14.416;2023-06-26T08:51:28;10.15;;;8.32;;
38358;SDS011;42072;48.044;14.416;2023-06-26T08:54:00;13.38;;;8.50;;
38358;SDS011;42072;48.044;14.416;2023-06-26T08:56:31;10.90;;;8.55;;
38358;SDS011;42072;48.044;14.416;2023-06-26T08:59:01;9.32;;;8.10;;
38358;SDS011;42072;48.044;14.416;2023-06-26T09:01:30;9.93;;;8.18;;
38358;SDS011;42072;48.044;14.416;2023-06-26T09:03:58;11.00;;;8.00;;
38358;SDS011;42072;48.044;14.416;2023-06-26T09:06:26;10.02;;;7.82;;
38358;SDS011;42072;48.044;14.416;2023-06-26T09:08:53;9.95;;;8.18;;
38358;SDS011;42072;48.044;14.416;2023-06-26T09:11:21;9.85;;;8.55;;
38358;SDS011;42072;48.044;14.416;2023-06-26T09:13:48;10.30;;;8.32;;
38358;SDS011;42072;48.044;14.416;2023-06-26T09:16:15;9.13;;;8.07;;
38358;SDS011;42072;48.044;14.416;2023-06-26T09:18:44;11.27;;;8.30;;
38358;SDS011;42072;48.044;14.416;2023-06-26T09:21:13;9.35;;;8.07;;
38358;SDS011;42072;48.044;14.416;2023-06-26T09:23:42;9.35;;;7.72;;
38358;SDS011;42072;48.044;14.416;2023-06-26T09:26:09;10.73;;;8.38;;
38358;SDS011;42072;48.044;14.416;2023-06-26T09:28:41;8.70;;;7.30;;
38358;SDS011;42072;48.044;14.416;2023-06-26T09:31:09;9.57;;;7.63;;
38358;SDS011;42072;48.044;14.416;2023-06-26T09:33:37;8.55;;;7.65;;
38358;SDS011;42072;48.044;14.416;2023-06-26T09:36:05;9.57;;;7.65;;
38358;SDS011;42072;48.044;14.416;2023-06-26T09:38:45;10.48;;;7.80;;
38358;SDS011;42072;48.044;14.416;2023-06-26T09:41:15;9.13;;;8.18;;
38358;SDS011;42072;48.044;14.416;2023-06-26T09:43:47;9.77;;;7.90;;
38358;SDS011;42072;48.044;14.416;2023-06-26T09:46:16;11.68;;;7.72;;
38358;SDS011;42072;48.044;14.416;2023-06-26T09:48:44;8.30;;;7.25;;
38358;SDS011;42072;48.044;14.416;2023-06-26T09:51:11;9.10;;;7.50;;
38358;SDS011;42072;48.044;14.416;2023-06-26T09:53:41;9.68;;;7.70;;
38358;SDS011;42072;48.044;14.416;2023-06-26T09:56:15;9.57;;;8.52;;
38358;SDS011;42072;48.044;14.416;2023-06-26T09:58:48;9.65;;;8.07;;
38358;SDS011;42072;48.044;14.416;2023-06-26T10:01:17;8.13;;;7.15;;
38358;SDS011;42072;48.044;14.416;2023-06-26T10:03:45;9.10;;;7.28;;
38358;SDS011;42072;48.044;14.416;2023-06-26T10:06:12;10.68;;;7.30;;
38358;SDS011;42072;48.044;14.416;2023-06-26T10:08:41;9.02;;;6.93;;
38358;SDS011;42072;48.044;14.416;2023-06-26T10:11:11;8.32;;;7.13;;
38358;SDS011;42072;48.044;14.416;2023-06-26T10:13:43;7.82;;;7.03;;
38358;SDS011;42072;48.044;14.416;2023-06-26T10:16:14;8.55;;;7.65;;
38358;SDS011;42072;48.044;14.416;2023-06-26T10:18:46;10.63;;;7.70;;
38358;SDS011;42072;48.044;14.416;2023-06-26T10:21:14;8.80;;;7.30;;
38358;SDS011;42072;48.044;14.416;2023-06-26T10:23:41;8.05;;;7.25;;
38358;SDS011;42072;48.044;14.416;2023-06-26T10:26:10;8.10;;;7.15;;
38358;SDS011;42072;48.044;14.416;2023-06-26T10:28:39;8.60;;;7.30;;
38358;SDS011;42072;48.044;14.416;2023-06-26T10:31:08;10.18;;;7.13;;
38358;SDS011;42072;48.044;14.416;2023-06-26T10:33:37;8.40;;;7.20;;
38358;SDS011;42072;48.044;14.416;2023-06-26T10:36:16;10.95;;;7.45;;
38358;SDS011;42072;48.044;14.416;2023-06-26T10:38:49;9.73;;;7.18;;
38358;SDS011;42072;48.044;14.416;2023-06-26T10:41:24;8.70;;;7.63;;
38358;SDS011;42072;48.044;14.416;2023-06-26T10:46:32;7.07;;;6.38;;
38358;SDS011;42072;48.044;14.416;2023-06-26T10:49:14;7.50;;;6.68;;
38358;SDS011;42072;48.044;14.416;2023-06-26T10:51:50;7.82;;;7.03;;
38358;SDS011;42072;48.044;14.416;2023-06-26T10:54:18;8.93;;;6.45;;
38358;SDS011;42072;48.044;14.416;2023-06-26T10:56:49;7.05;;;6.35;;
38358;SDS011;42072;48.044;14.416;2023-06-26T10:59:26;7.28;;;6.20;;
38358;SDS011;42072;48.044;14.416;2023-06-26T11:01:59;7.07;;;6.38;;
38358;SDS011;42072;48.044;14.416;2023-06-26T11:07:16;7.15;;;6.45;;
38358;SDS011;42072;48.044;14.416;2023-06-26T11:12:38;9.00;;;5.93;;
38358;SDS011;42072;48.044;14.416;2023-06-26T11:15:09;7.38;;;6.32;;
38358;SDS011;42072;48.044;14.416;2023-06-26T11:17:40;8.40;;;6.07;;
38358;SDS011;42072;48.044;14.416;2023-06-26T11:20:09;6.28;;;5.65;;
38358;SDS011;42072;48.044;14.416;2023-06-26T11:22:37;6.88;;;6.10;;
38358;SDS011;42072;48.044;14.416;2023-06-26T11:25:06;8.90;;;6.45;;
38358;SDS011;42072;48.044;14.416;2023-06-26T11:30:10;8.05;;;5.70;;
38358;SDS011;42072;48.044;14.416;2023-06-26T11:32:48;8.13;;;5.85;;
38358;SDS011;42072;48.044;14.416;2023-06-26T11:35:22;8.75;;;6.05;;
38358;SDS011;42072;48.044;14.416;2023-06-26T11:37:56;7.18;;;5.95;;
38358;SDS011;42072;48.044;14.416;2023-06-26T11:40:33;10.25;;;6.28;;
38358;SDS011;42072;48.044;14.416;2023-06-26T11:43:02;8.80;;;6.40;;
38358;SDS011;42072;48.044;14.416;2023-06-26T11:45:30;8.70;;;5.85;;
38358;SDS011;42072;48.044;14.416;2023-06-26T11:47:58;9.57;;;6.10;;
38358;SDS011;42072;48.044;14.416;2023-06-26T11:50:27;9.75;;;6.60;;
38358;SDS011;42072;48.044;14.416;2023-06-26T11:52:55;7.10;;;6.28;;
38358;SDS011;42072;48.044;14.416;2023-06-26T11:55:26;7.55;;;6.82;;
38358;SDS011;42072;48.044;14.416;2023-06-26T11:57:54;7.07;;;6.40;;
38358;SDS011;42072;48.044;14.416;2023-06-26T12:00:22;8.50;;;6.05;;
38358;SDS011;42072;48.044;14.416;2023-06-26T12:02:50;6.60;;;6.00;;
38358;SDS011;42072;48.044;14.416;2023-06-26T12:05:18;8.63;;;5.82;;
38358;SDS011;42072;48.044;14.416;2023-06-26T12:07:47;9.88;;;6.70;;
38358;SDS011;42072;48.044;14.416;2023-06-26T12:10:15;8.07;;;6.35;;
38358;SDS011;42072;48.044;14.416;2023-06-26T12:12:43;8.13;;;6.47;;
38358;SDS011;42072;48.044;14.416;2023-06-26T12:15:13;8.45;;;6.50;;
38358;SDS011;42072;48.044;14.416;2023-06-26T12:17:41;7.47;;;6.55;;
38358;SDS011;42072;48.044;14.416;2023-06-26T12:20:19;6.22;;;5.55;;
38358;SDS011;42072;48.044;14.416;2023-06-26T12:22:47;8.70;;;7.13;;
38358;SDS011;42072;48.044;14.416;2023-06-26T12:25:20;7.57;;;6.38;;
38358;SDS011;42072;48.044;14.416;2023-06-26T12:27:49;6.60;;;6.00;;
38358;SDS011;42072;48.044;14.416;2023-06-26T12:30:16;7.40;;;6.35;;
38358;SDS011;42072;48.044;14.416;2023-06-26T12:32:44;7.85;;;6.05;;
38358;SDS011;42072;48.044;14.416;2023-06-26T12:35:15;8.10;;;6.22;;
38358;SDS011;42072;48.044;14.416;2023-06-26T12:37:43;7.47;;;6.10;;
38358;SDS011;42072;48.044;14.416;2023-06-26T12:40:19;6.65;;;5.47;;
38358;SDS011;42072;48.044;14.416;2023-06-26T12:42:49;7.30;;;6.45;;
38358;SDS011;42072;48.044;14.416;2023-06-26T12:45:16;7.78;;;5.53;;
38358;SDS011;42072;48.044;14.416;2023-06-26T12:47:46;7.18;;;6.40;;
38358;SDS011;42072;48.044;14.416;2023-06-26T12:50:14;7.18;;;6.25;;
38358;SDS011;42072;48.044;14.416;2023-06-26T12:52:43;7.28;;;6.30;;
38358;SDS011;42072;48.044;14.416;2023-06-26T12:55:10;7.22;;;6.53;;
38358;SDS011;42072;48.044;14.416;2023-06-26T12:57:37;7.25;;;6.45;;
38358;SDS011;42072;48.044;14.416;2023-06-26T13:00:04;7.03;;;6.25;;
38358;SDS011;42072;48.044;14.416;2023-06-26T13:02:32;6.80;;;6.07;;
38358;SDS011;42072;48.044;14.416;2023-06-26T13:04:59;7.22;;;6.25;;
38358;SDS011;42072;48.044;14.416;2023-06-26T13:07:26;7.20;;;6.50;;
38358;SDS011;42072;48.044;14.416;2023-06-26T13:09:54;8.55;;;6.63;;
38358;SDS011;42072;48.044;14.416;2023-06-26T13:12:22;7.00;;;6.30;;
38358;SDS011;42072;48.044;14.416;2023-06-26T13:14:49;6.63;;;6.00;;
38358;SDS011;42072;48.044;14.416;2023-06-26T13:17:16;6.95;;;6.22;;
38358;SDS011;42072;48.044;14.416;2023-06-26T13:19:43;8.63;;;6.65;;
38358;SDS011;42072;48.044;14.416;2023-06-26T13:22:10;6.70;;;6.00;;
38358;SDS011;42072;48.044;14.416;2023-06-26T13:24:37;9.30;;;6.35;;
38358;SDS011;42072;48.044;14.416;2023-06-26T13:27:05;7.43;;;6.60;;
38358;SDS011;42072;48.044;14.416;2023-06-26T13:29:33;6.78;;;6.18;;
38358;SDS011;42072;48.044;14.416;2023-06-26T13:32:00;7.35;;;6.50;;
38358;SDS011;42072;48.044;14.416;2023-06-26T13:34:27;8.02;;;6.30;;
38358;SDS011;42072;48.044;14.416;2023-06-26T13:36:54;7.53;;;6.00;;
38358;SDS011;42072;48.044;14.416;2023-06-26T13:39:22;7.22;;;6.32;;
38358;SDS011;42072;48.044;14.416;2023-06-26T13:41:49;6.85;;;6.20;;
38358;SDS011;42072;48.044;14.416;2023-06-26T13:44:16;6.82;;;6.13;;
38358;SDS011;42072;48.044;14.416;2023-06-26T13:47:01;7.30;;;6.60;;
38358;SDS011;42072;48.044;14.416;2023-06-26T13:49:29;8.00;;;6.90;;
38358;SDS011;42072;48.044;14.416;2023-06-26T13:51:56;6.90;;;6.20;;
38358;SDS011;42072;48.044;14.416;2023-06-26T13:54:23;7.30;;;6.60;;
38358;SDS011;42072;48.044;14.416;2023-06-26T13:56:50;9.25;;;7.05;;
38358;SDS011;42072;48.044;14.416;2023-06-26T13:59:17;9.05;;;6.80;;
38358;SDS011;42072;48.044;14.416;2023-06-26T14:01:47;6.72;;;6.03;;
38358;SDS011;42072;48.044;14.416;2023-06-26T14:04:14;7.38;;;6.68;;
38358;SDS011;42072;48.044;14.416;2023-06-26T14:06:41;7.28;;;6.40;;
38358;SDS011;42072;48.044;14.416;2023-06-26T14:09:08;7.40;;;6.65;;
38358;SDS011;42072;48.044;14.416;2023-06-26T14:11:35;6.97;;;6.28;;
38358;SDS011;42072;48.044;14.416;2023-06-26T14:14:03;7.80;;;7.00;;
38358;SDS011;42072;48.044;14.416;2023-06-26T14:16:30;6.95;;;6.28;;
38358;SDS011;42072;48.044;14.416;2023-06-26T14:18:58;7.25;;;6.32;;
38358;SDS011;42072;48.044;14.416;2023-06-26T14:21:25;6.75;;;6.15;;
38358;SDS011;42072;48.044;14.416;2023-06-26T14:23:56;9.73;;;6.70;;
38358;SDS011;42072;48.044;14.416;2023-06-26T14:26:24;8.43;;;6.75;;
38358;SDS011;42072;48.044;14.416;2023-06-26T14:28:51;7.50;;;6.60;;
38358;SDS011;42072;48.044;14.416;2023-06-26T14:31:18;7.88;;;6.57;;
38358;SDS011;42072;48.044;14.416;2023-06-26T14:33:46;8.88;;;6.90;;
38358;SDS011;42072;48.044;14.416;2023-06-26T14:36:13;7.78;;;6.95;;
38358;SDS011;42072;48.044;14.416;2023-06-26T14:38:40;7.38;;;6.68;;
38358;SDS011;42072;48.044;14.416;2023-06-26T14:41:07;7.97;;;6.57;;
38358;SDS011;42072;48.044;14.416;2023-06-26T14:43:35;7.13;;;6.43;;
38358;SDS011;42072;48.044;14.416;2023-06-26T14:46:03;6.88;;;6.18;;
38358;SDS011;42072;48.044;14.416;2023-06-26T14:48:31;6.28;;;5.68;;